createdAt,value
2018-12-08T00:00:46.983Z,0.00
2018-12-08T00:01:46.971Z,0.00
2018-12-08T00:02:46.968Z,0.00
2018-12-08T00:03:46.971Z,0.00
2018-12-08T00:04:46.972Z,0.00
2018-12-08T00:05:46.967Z,0.00
2018-12-08T00:06:46.955Z,0.00
2018-12-08T00:07:46.961Z,0.00
2018-12-08T00:08:46.956Z,0.00
2018-12-08T00:09:47.036Z,0.00
2018-12-08T00:10:46.954Z,0.00
2018-12-08T00:11:46.960Z,0.00
2018-12-08T00:12:46.956Z,0.00
2018-12-08T00:13:46.944Z,0.00
2018-12-08T00:14:46.963Z,0.00
2018-12-08T00:15:46.947Z,0.00
2018-12-08T00:16:46.954Z,0.00
2018-12-08T00:17:46.951Z,0.00
2018-12-08T00:18:46.943Z,0.00
2018-12-08T00:19:46.943Z,0.00
2018-12-08T00:20:46.938Z,0.00
2018-12-08T00:21:46.940Z,0.00
2018-12-08T00:22:46.949Z,0.00
2018-12-08T00:23:46.937Z,0.00
2018-12-08T00:24:46.924Z,0.00
2018-12-08T00:25:46.946Z,0.00
2018-12-08T00:26:46.950Z,0.00
2018-12-08T00:27:46.940Z,0.00
2018-12-08T00:28:46.920Z,0.00
2018-12-08T00:29:46.920Z,0.00
2018-12-08T00:30:46.916Z,0.00
2018-12-08T00:31:46.938Z,0.00
2018-12-08T00:32:46.921Z,0.00
2018-12-08T00:33:46.983Z,0.00
2018-12-08T00:34:46.921Z,0.00
2018-12-08T00:35:46.913Z,0.00
2018-12-08T00:36:46.912Z,0.00
2018-12-08T00:37:46.913Z,0.00
2018-12-08T00:38:46.918Z,0.00
2018-12-08T00:39:46.917Z,0.00
2018-12-08T00:40:46.924Z,0.00
2018-12-08T00:41:46.909Z,0.00
2018-12-08T00:42:46.911Z,0.00
2018-12-08T00:43:46.911Z,0.00
2018-12-08T00:44:46.897Z,0.00
2018-12-08T00:45:46.906Z,0.00
2018-12-08T00:46:46.901Z,0.00
2018-12-08T00:47:46.908Z,0.00
2018-12-08T00:48:46.904Z,0.00
2018-12-08T00:49:46.898Z,0.00
2018-12-08T00:50:46.902Z,0.00
2018-12-08T00:51:46.904Z,0.00
2018-12-08T00:52:46.895Z,0.00
2018-12-08T00:53:46.909Z,0.00
2018-12-08T00:54:46.891Z,0.00
2018-12-08T00:55:46.892Z,0.00
2018-12-08T00:56:46.892Z,0.00
2018-12-08T00:57:46.879Z,0.00
2018-12-08T00:58:46.884Z,0.00
2018-12-08T00:59:46.999Z,0.00
2018-12-08T01:00:46.889Z,0.00
2018-12-08T01:01:46.898Z,0.00
2018-12-08T01:02:46.886Z,0.00
2018-12-08T01:03:46.883Z,0.00
2018-12-08T01:04:46.879Z,0.00
2018-12-08T01:05:46.880Z,0.00
2018-12-08T01:06:46.882Z,0.00
2018-12-08T01:07:46.883Z,0.00
2018-12-08T01:08:46.866Z,0.00
2018-12-08T01:09:46.869Z,0.00
2018-12-08T01:10:46.874Z,0.00
2018-12-08T01:11:46.865Z,0.00
2018-12-08T01:12:46.862Z,0.00
2018-12-08T01:13:46.866Z,0.00
2018-12-08T01:14:46.872Z,0.00
2018-12-08T01:15:46.881Z,0.00
2018-12-08T01:16:46.858Z,0.00
2018-12-08T01:17:46.867Z,0.00
2018-12-08T01:18:46.859Z,0.00
2018-12-08T01:19:46.860Z,0.00
2018-12-08T01:20:46.865Z,0.00
2018-12-08T01:21:46.854Z,0.00
2018-12-08T01:22:46.857Z,0.00
2018-12-08T01:23:46.846Z,0.00
2018-12-08T01:24:46.856Z,0.00
2018-12-08T01:25:46.848Z,0.00
2018-12-08T01:26:46.852Z,0.00
2018-12-08T01:27:46.851Z,0.00
2018-12-08T01:28:46.835Z,0.00
2018-12-08T01:29:46.851Z,0.00
2018-12-08T01:30:46.834Z,0.00
2018-12-08T01:31:46.835Z,0.00
2018-12-08T01:32:46.838Z,0.00
2018-12-08T01:33:46.865Z,0.00
2018-12-08T01:34:46.830Z,0.00
2018-12-08T01:35:46.834Z,0.00
2018-12-08T01:36:46.838Z,0.00
2018-12-08T01:37:46.827Z,0.00
2018-12-08T01:38:46.833Z,0.00
2018-12-08T01:39:46.831Z,0.00
2018-12-08T01:40:46.821Z,0.00
2018-12-08T01:41:46.839Z,0.00
2018-12-08T01:42:46.829Z,0.00
2018-12-08T01:43:46.826Z,0.00
2018-12-08T01:44:46.836Z,0.00
2018-12-08T01:45:46.813Z,0.00
2018-12-08T01:46:46.814Z,0.00
2018-12-08T01:47:46.811Z,0.00
2018-12-08T01:48:46.837Z,0.00
2018-12-08T01:49:46.810Z,0.00
2018-12-08T01:50:46.810Z,0.00
2018-12-08T01:51:46.824Z,0.00
2018-12-08T01:52:46.803Z,0.00
2018-12-08T01:53:46.802Z,0.00
2018-12-08T01:54:46.809Z,0.00
2018-12-08T01:55:46.801Z,0.00
2018-12-08T01:56:46.804Z,0.00
2018-12-08T01:57:46.807Z,0.00
2018-12-08T01:58:46.789Z,0.00
2018-12-08T01:59:46.798Z,0.00
2018-12-08T02:00:46.805Z,0.00
2018-12-08T02:01:46.797Z,0.00
2018-12-08T02:02:46.792Z,0.00
2018-12-08T02:03:46.800Z,0.00
2018-12-08T02:04:46.793Z,0.00
2018-12-08T02:05:46.790Z,0.00
2018-12-08T02:06:46.789Z,0.00
2018-12-08T02:07:46.780Z,0.00
2018-12-08T02:08:46.779Z,0.00
2018-12-08T02:09:46.796Z,0.00
2018-12-08T02:10:46.783Z,0.00
2018-12-08T02:11:46.770Z,0.00
2018-12-08T02:12:46.785Z,0.00
2018-12-08T02:13:46.772Z,0.00
2018-12-08T02:14:46.786Z,0.00
2018-12-08T02:15:46.771Z,0.00
2018-12-08T02:16:46.778Z,0.00
2018-12-08T02:17:46.763Z,0.00
2018-12-08T02:18:46.770Z,0.00
2018-12-08T02:19:46.770Z,0.00
2018-12-08T02:20:46.760Z,0.00
2018-12-08T02:21:46.838Z,0.00
2018-12-08T02:22:46.764Z,0.00
2018-12-08T02:23:46.758Z,0.00
2018-12-08T02:24:46.760Z,0.00
2018-12-08T02:25:46.758Z,0.00
2018-12-08T02:26:46.750Z,0.00
2018-12-08T02:27:46.745Z,0.00
2018-12-08T02:28:46.761Z,0.00
2018-12-08T02:29:46.758Z,0.00
2018-12-08T02:30:46.750Z,0.00
2018-12-08T02:31:46.747Z,0.00
2018-12-08T02:32:46.743Z,0.00
2018-12-08T02:33:46.739Z,0.00
2018-12-08T02:34:46.742Z,0.00
2018-12-08T02:35:46.751Z,0.00
2018-12-08T02:36:46.752Z,0.00
2018-12-08T02:37:46.726Z,0.00
2018-12-08T02:38:46.725Z,0.00
2018-12-08T02:39:46.741Z,0.00
2018-12-08T02:40:46.726Z,0.00
2018-12-08T02:41:46.727Z,0.00
2018-12-08T02:42:46.721Z,0.00
2018-12-08T02:43:46.724Z,0.00
2018-12-08T02:44:46.720Z,0.00
2018-12-08T02:45:46.715Z,0.00
2018-12-08T02:46:46.718Z,0.00
2018-12-08T02:47:46.725Z,0.00
2018-12-08T02:48:46.721Z,0.00
2018-12-08T02:49:46.715Z,0.00
2018-12-08T02:50:48.366Z,0.00
2018-12-08T02:51:46.749Z,0.00
2018-12-08T02:52:46.716Z,0.00
2018-12-08T02:53:46.728Z,0.00
2018-12-08T02:54:46.707Z,0.00
2018-12-08T02:55:46.698Z,0.00
2018-12-08T02:56:46.707Z,0.00
2018-12-08T02:57:46.706Z,0.00
2018-12-08T02:58:46.695Z,0.00
2018-12-08T02:59:46.701Z,0.00
2018-12-08T03:00:46.706Z,0.00
2018-12-08T03:01:48.359Z,0.00
2018-12-08T03:02:46.699Z,0.00
2018-12-08T03:03:46.751Z,0.00
2018-12-08T03:04:46.684Z,0.00
2018-12-08T03:05:46.697Z,0.00
2018-12-08T03:06:46.687Z,0.00
2018-12-08T03:07:46.681Z,0.00
2018-12-08T03:08:46.674Z,0.00
2018-12-08T03:09:46.681Z,0.00
2018-12-08T03:10:46.675Z,0.00
2018-12-08T03:11:46.671Z,0.00
2018-12-08T03:12:46.685Z,0.00
2018-12-08T03:13:46.672Z,0.00
2018-12-08T03:14:46.665Z,0.00
2018-12-08T03:15:46.664Z,0.00
2018-12-08T03:16:46.686Z,0.00
2018-12-08T03:17:46.687Z,0.00
2018-12-08T03:18:46.675Z,0.00
2018-12-08T03:19:46.669Z,0.00
2018-12-08T03:20:46.663Z,0.00
2018-12-08T03:21:46.653Z,0.00
2018-12-08T03:22:46.652Z,0.00
2018-12-08T03:23:46.665Z,0.00
2018-12-08T03:24:46.762Z,0.00
2018-12-08T03:25:46.652Z,0.00
2018-12-08T03:26:48.370Z,0.00
2018-12-08T03:27:46.642Z,0.00
2018-12-08T03:28:46.645Z,0.00
2018-12-08T03:29:46.643Z,0.00
2018-12-08T03:30:46.666Z,0.00
2018-12-08T03:31:46.658Z,0.00
2018-12-08T03:32:46.652Z,0.00
2018-12-08T03:33:46.637Z,0.00
2018-12-08T03:34:46.645Z,0.00
2018-12-08T03:35:46.632Z,0.00
2018-12-08T03:36:46.639Z,0.00
2018-12-08T03:37:48.363Z,0.00
2018-12-08T03:38:46.643Z,0.00
2018-12-08T03:39:46.630Z,0.00
2018-12-08T03:40:46.628Z,0.00
2018-12-08T03:41:46.627Z,0.00
2018-12-08T03:42:46.619Z,0.00
2018-12-08T03:43:46.628Z,0.00
2018-12-08T03:44:46.628Z,0.00
2018-12-08T03:45:46.622Z,0.00
2018-12-08T03:46:46.636Z,0.00
2018-12-08T03:47:46.609Z,0.00
2018-12-08T03:48:46.626Z,0.00
2018-12-08T03:49:46.616Z,0.00
2018-12-08T03:50:46.606Z,0.00
2018-12-08T03:51:46.605Z,0.00
2018-12-08T03:52:46.618Z,0.00
2018-12-08T03:53:46.614Z,0.00
2018-12-08T03:54:46.608Z,0.00
2018-12-08T03:55:46.608Z,0.00
2018-12-08T03:56:46.617Z,0.00
2018-12-08T03:57:46.619Z,0.00
2018-12-08T03:58:46.612Z,0.00
2018-12-08T03:59:46.618Z,0.00
2018-12-08T04:00:46.614Z,0.00
2018-12-08T04:01:46.588Z,0.00
2018-12-08T04:02:46.607Z,0.00
2018-12-08T04:03:46.588Z,0.00
2018-12-08T04:04:46.598Z,0.00
2018-12-08T04:05:46.592Z,0.00
2018-12-08T04:06:46.588Z,0.00
2018-12-08T04:07:46.584Z,0.00
2018-12-08T04:08:46.580Z,0.00
2018-12-08T04:09:46.596Z,0.00
2018-12-08T04:10:46.587Z,0.00
2018-12-08T04:11:46.583Z,0.00
2018-12-08T04:12:46.581Z,0.00
2018-12-08T04:13:46.583Z,0.00
2018-12-08T04:14:46.571Z,0.00
2018-12-08T04:15:46.577Z,0.00
2018-12-08T04:16:46.567Z,0.00
2018-12-08T04:17:46.571Z,0.00
2018-12-08T04:18:46.579Z,0.00
2018-12-08T04:19:46.572Z,0.00
2018-12-08T04:20:46.570Z,0.00
2018-12-08T04:21:46.573Z,0.00
2018-12-08T04:22:46.567Z,0.00
2018-12-08T04:23:46.570Z,0.00
2018-12-08T04:24:46.567Z,0.00
2018-12-08T04:25:46.563Z,0.00
2018-12-08T04:26:46.552Z,0.00
2018-12-08T04:27:46.559Z,0.00
2018-12-08T04:28:46.554Z,0.00
2018-12-08T04:29:46.556Z,0.00
2018-12-08T04:30:46.557Z,0.00
2018-12-08T04:31:46.553Z,0.00
2018-12-08T04:32:46.547Z,0.00
2018-12-08T04:33:46.566Z,0.00
2018-12-08T04:34:46.547Z,0.00
2018-12-08T04:35:46.553Z,0.00
2018-12-08T04:36:46.570Z,0.00
2018-12-08T04:37:46.546Z,0.00
2018-12-08T04:38:46.538Z,0.00
2018-12-08T04:39:46.539Z,0.00
2018-12-08T04:40:46.545Z,0.00
2018-12-08T04:41:46.546Z,0.00
2018-12-08T04:42:46.550Z,0.00
2018-12-08T04:43:46.537Z,0.00
2018-12-08T04:44:46.539Z,0.00
2018-12-08T04:45:46.536Z,0.00
2018-12-08T04:46:46.546Z,0.00
2018-12-08T04:47:46.538Z,0.00
2018-12-08T04:48:46.518Z,0.00
2018-12-08T04:49:46.522Z,0.00
2018-12-08T04:50:46.520Z,0.00
2018-12-08T04:51:46.519Z,0.00
2018-12-08T04:52:46.528Z,0.00
2018-12-08T04:53:46.522Z,0.00
2018-12-08T04:54:46.519Z,0.00
2018-12-08T04:55:46.520Z,0.00
2018-12-08T04:56:46.540Z,0.00
2018-12-08T04:57:46.510Z,0.00
2018-12-08T04:58:46.512Z,0.00
2018-12-08T04:59:46.517Z,0.00
2018-12-08T05:00:46.511Z,0.00
2018-12-08T05:01:46.517Z,0.00
2018-12-08T05:02:46.509Z,0.00
2018-12-08T05:03:46.513Z,0.00
2018-12-08T05:04:46.505Z,0.00
2018-12-08T05:05:46.504Z,0.00
2018-12-08T05:06:46.497Z,0.00
2018-12-08T05:07:46.520Z,0.00
2018-12-08T05:08:46.505Z,0.00
2018-12-08T05:09:46.506Z,0.00
2018-12-08T05:10:46.506Z,0.00
2018-12-08T05:11:46.494Z,0.00
2018-12-08T05:12:46.493Z,0.00
2018-12-08T05:13:46.494Z,0.00
2018-12-08T05:14:46.497Z,0.00
2018-12-08T05:15:46.508Z,0.00
2018-12-08T05:16:46.495Z,0.00
2018-12-08T05:17:46.489Z,0.00
2018-12-08T05:18:46.496Z,0.00
2018-12-08T05:19:46.494Z,0.00
2018-12-08T05:20:46.480Z,0.00
2018-12-08T05:21:46.490Z,0.00
2018-12-08T05:22:46.482Z,0.00
2018-12-08T05:23:46.531Z,0.00
2018-12-08T05:24:46.486Z,0.00
2018-12-08T05:25:46.481Z,0.00
2018-12-08T05:26:46.482Z,0.00
2018-12-08T05:27:46.480Z,0.00
2018-12-08T05:28:46.486Z,0.00
2018-12-08T05:29:46.480Z,0.00
2018-12-08T05:30:46.485Z,0.00
2018-12-08T05:31:46.475Z,0.00
2018-12-08T05:32:46.474Z,0.00
2018-12-08T05:33:46.473Z,0.00
2018-12-08T05:34:46.479Z,0.00
2018-12-08T05:35:46.477Z,0.00
2018-12-08T05:36:46.465Z,0.00
2018-12-08T05:37:46.471Z,0.00
2018-12-08T05:38:46.466Z,0.00
2018-12-08T05:39:46.471Z,0.00
2018-12-08T05:40:46.471Z,0.00
2018-12-08T05:41:46.468Z,0.00
2018-12-08T05:42:46.461Z,0.00
2018-12-08T05:43:46.481Z,0.00
2018-12-08T05:44:46.458Z,0.00
2018-12-08T05:45:46.458Z,0.00
2018-12-08T05:46:46.460Z,0.00
2018-12-08T05:47:46.456Z,0.00
2018-12-08T05:48:46.455Z,0.00
2018-12-08T05:49:46.442Z,0.00
2018-12-08T05:50:46.445Z,0.00
2018-12-08T05:51:46.456Z,0.00
2018-12-08T05:52:46.446Z,0.00
2018-12-08T05:53:46.451Z,0.00
2018-12-08T05:54:46.451Z,0.00
2018-12-08T05:55:46.453Z,0.00
2018-12-08T05:56:46.447Z,0.00
2018-12-08T05:57:46.431Z,0.00
2018-12-08T05:58:46.449Z,0.00
2018-12-08T05:59:46.440Z,0.00
2018-12-08T06:00:46.427Z,0.00
2018-12-08T06:01:46.437Z,0.00
2018-12-08T06:02:46.429Z,0.00
2018-12-08T06:03:46.433Z,0.00
2018-12-08T06:04:46.428Z,0.00
2018-12-08T06:05:46.431Z,0.00
2018-12-08T06:06:46.432Z,0.00
2018-12-08T06:07:46.435Z,0.00
2018-12-08T06:08:46.427Z,0.00
2018-12-08T06:09:46.426Z,0.00
2018-12-08T06:10:46.456Z,0.00
2018-12-08T06:11:46.422Z,0.00
2018-12-08T06:12:46.416Z,0.00
2018-12-08T06:13:46.414Z,0.00
2018-12-08T06:14:46.414Z,0.00
2018-12-08T06:15:46.418Z,0.00
2018-12-08T06:16:46.420Z,0.00
2018-12-08T06:17:46.432Z,0.00
2018-12-08T06:18:46.410Z,0.00
2018-12-08T06:19:46.415Z,0.00
2018-12-08T06:20:46.406Z,0.00
2018-12-08T06:21:46.410Z,0.00
2018-12-08T06:22:46.410Z,0.00
2018-12-08T06:23:46.412Z,0.00
2018-12-08T06:24:46.404Z,0.00
2018-12-08T06:25:46.398Z,0.00
2018-12-08T06:26:46.402Z,0.00
2018-12-08T06:27:46.402Z,0.00
2018-12-08T06:28:46.400Z,0.00
2018-12-08T06:29:46.396Z,0.00
2018-12-08T06:30:46.403Z,0.00
2018-12-08T06:31:46.396Z,0.00
2018-12-08T06:32:46.397Z,0.00
2018-12-08T06:33:46.387Z,0.00
2018-12-08T06:34:46.394Z,0.00
2018-12-08T06:35:46.385Z,0.00
2018-12-08T06:36:46.382Z,0.00
2018-12-08T06:37:46.388Z,0.00
2018-12-08T06:38:46.381Z,0.00
2018-12-08T06:39:46.388Z,0.00
2018-12-08T06:40:46.381Z,0.00
2018-12-08T06:41:46.386Z,0.00
2018-12-08T06:42:46.388Z,0.00
2018-12-08T06:43:46.376Z,0.00
2018-12-08T06:44:46.375Z,0.00
2018-12-08T06:45:46.390Z,0.00
2018-12-08T06:46:46.379Z,0.00
2018-12-08T06:47:46.374Z,0.00
2018-12-08T06:48:46.374Z,0.00
2018-12-08T06:49:47.901Z,0.00
2018-12-08T06:50:46.370Z,0.00
2018-12-08T06:51:46.374Z,0.00
2018-12-08T06:52:46.371Z,0.00
2018-12-08T06:53:46.368Z,0.00
2018-12-08T06:54:46.372Z,4.00
2018-12-08T06:55:46.358Z,4.00
2018-12-08T06:56:46.353Z,0.00
2018-12-08T06:57:46.356Z,0.00
2018-12-08T06:58:46.361Z,0.00
2018-12-08T06:59:46.364Z,0.00
2018-12-08T07:00:46.358Z,0.00
2018-12-08T07:01:46.352Z,4.00
2018-12-08T07:02:46.350Z,4.00
2018-12-08T07:03:46.351Z,4.00
2018-12-08T07:04:46.354Z,0.00
2018-12-08T07:05:46.347Z,4.00
2018-12-08T07:06:46.351Z,8.00
2018-12-08T07:07:46.343Z,8.00
2018-12-08T07:08:46.343Z,8.00
2018-12-08T07:09:46.338Z,8.00
2018-12-08T07:10:46.343Z,8.00
2018-12-08T07:11:46.339Z,12.00
2018-12-08T07:12:46.349Z,16.00
2018-12-08T07:13:46.341Z,20.00
2018-12-08T07:14:46.360Z,16.00
2018-12-08T07:15:46.341Z,20.00
2018-12-08T07:16:46.338Z,24.00
2018-12-08T07:17:46.336Z,40.00
2018-12-08T07:18:46.351Z,36.00
2018-12-08T07:19:46.336Z,20.00
2018-12-08T07:20:46.337Z,24.00
2018-12-08T07:21:46.340Z,24.00
2018-12-08T07:22:46.328Z,36.00
2018-12-08T07:23:46.334Z,40.00
2018-12-08T07:24:46.328Z,48.00
2018-12-08T07:25:46.327Z,64.00
2018-12-08T07:26:46.335Z,56.00
2018-12-08T07:27:46.323Z,60.00
2018-12-08T07:28:46.333Z,56.00
2018-12-08T07:29:46.322Z,36.00
2018-12-08T07:30:46.313Z,36.00
2018-12-08T07:31:46.336Z,36.00
2018-12-08T07:32:46.320Z,48.00
2018-12-08T07:33:46.310Z,68.00
2018-12-08T07:34:46.309Z,64.00
2018-12-08T07:35:46.310Z,64.00
2018-12-08T07:36:46.319Z,52.00
2018-12-08T07:37:46.317Z,56.00
2018-12-08T07:38:46.308Z,56.00
2018-12-08T07:39:46.319Z,100.00
2018-12-08T07:40:46.309Z,116.00
2018-12-08T07:41:46.317Z,88.00
2018-12-08T07:42:46.314Z,84.00
2018-12-08T07:43:46.301Z,76.00
2018-12-08T07:44:46.311Z,88.00
2018-12-08T07:45:46.305Z,76.00
2018-12-08T07:46:46.303Z,72.00
2018-12-08T07:47:46.298Z,72.00
2018-12-08T07:48:46.295Z,124.00
2018-12-08T07:49:46.297Z,144.00
2018-12-08T07:50:46.293Z,132.00
2018-12-08T07:51:46.301Z,156.00
2018-12-08T07:52:46.287Z,196.00
2018-12-08T07:53:46.289Z,176.00
2018-12-08T07:54:46.317Z,240.00
2018-12-08T07:55:46.290Z,260.00
2018-12-08T07:56:46.291Z,224.00
2018-12-08T07:57:46.298Z,176.00
2018-12-08T07:58:46.290Z,168.00
2018-12-08T07:59:46.284Z,148.00
2018-12-08T08:00:46.282Z,120.00
2018-12-08T08:01:46.280Z,164.00
2018-12-08T08:02:46.288Z,164.00
2018-12-08T08:03:46.279Z,168.00
2018-12-08T08:04:46.278Z,164.00
2018-12-08T08:05:46.279Z,148.00
2018-12-08T08:06:46.279Z,148.00
2018-12-08T08:07:46.273Z,164.00
2018-12-08T08:08:46.274Z,208.00
2018-12-08T08:09:46.261Z,148.00
2018-12-08T08:10:46.275Z,300.00
2018-12-08T08:11:46.270Z,300.00
2018-12-08T08:12:46.270Z,372.00
2018-12-08T08:13:46.263Z,372.00
2018-12-08T08:14:46.267Z,372.00
2018-12-08T08:15:46.266Z,328.00
2018-12-08T08:16:46.262Z,352.00
2018-12-08T08:17:46.274Z,288.00
2018-12-08T08:18:46.264Z,216.00
2018-12-08T08:19:46.288Z,156.00
2018-12-08T08:20:46.265Z,120.00
2018-12-08T08:21:46.256Z,140.00
2018-12-08T08:22:46.255Z,208.00
2018-12-08T08:23:46.248Z,212.00
2018-12-08T08:24:46.253Z,208.00
2018-12-08T08:25:46.261Z,228.00
2018-12-08T08:26:46.252Z,304.00
2018-12-08T08:27:46.257Z,396.00
2018-12-08T08:28:46.246Z,456.00
2018-12-08T08:29:46.248Z,600.00
2018-12-08T08:30:46.245Z,664.00
2018-12-08T08:31:46.239Z,624.00
2018-12-08T08:32:46.252Z,472.00
2018-12-08T08:33:46.243Z,524.00
2018-12-08T08:34:46.242Z,672.00
2018-12-08T08:35:46.238Z,736.00
2018-12-08T08:36:46.241Z,672.00
2018-12-08T08:37:46.235Z,704.00
2018-12-08T08:38:46.241Z,552.00
2018-12-08T08:39:46.235Z,428.00
2018-12-08T08:40:46.235Z,516.00
2018-12-08T08:41:46.241Z,488.00
2018-12-08T08:42:46.229Z,584.00
2018-12-08T08:43:46.229Z,392.00
2018-12-08T08:44:46.227Z,316.00
2018-12-08T08:45:46.225Z,236.00
2018-12-08T08:46:46.218Z,192.00
2018-12-08T08:47:46.225Z,228.00
2018-12-08T08:48:46.233Z,340.00
2018-12-08T08:49:46.225Z,424.00
2018-12-08T08:50:46.218Z,400.00
2018-12-08T08:51:46.213Z,360.00
2018-12-08T08:52:46.220Z,496.00
2018-12-08T08:53:46.214Z,512.00
2018-12-08T08:54:46.224Z,420.00
2018-12-08T08:55:46.216Z,452.00
2018-12-08T08:56:46.223Z,336.00
2018-12-08T08:57:46.222Z,224.00
2018-12-08T08:58:46.216Z,176.00
2018-12-08T08:59:46.239Z,108.00
2018-12-08T09:00:46.240Z,88.00
2018-12-08T09:01:46.355Z,132.00
2018-12-08T09:02:46.263Z,112.00
2018-12-08T09:03:46.364Z,108.00
2018-12-08T09:04:46.298Z,156.00
2018-12-08T09:05:46.337Z,136.00
2018-12-08T09:06:46.293Z,200.00
2018-12-08T09:07:46.316Z,220.00
2018-12-08T09:08:46.222Z,284.00
2018-12-08T09:09:46.600Z,252.00
2018-12-08T09:10:46.234Z,244.00
2018-12-08T09:11:46.425Z,212.00
2018-12-08T09:12:46.195Z,268.00
2018-12-08T09:13:46.219Z,316.00
2018-12-08T09:14:46.198Z,288.00
2018-12-08T09:15:46.206Z,208.00
2018-12-08T09:16:46.254Z,176.00
2018-12-08T09:17:46.269Z,196.00
2018-12-08T09:18:46.266Z,184.00
2018-12-08T09:19:46.271Z,240.00
2018-12-08T09:20:46.227Z,264.00
2018-12-08T09:21:46.364Z,292.00
2018-12-08T09:22:46.222Z,288.00
2018-12-08T09:23:46.207Z,328.00
2018-12-08T09:24:46.186Z,280.00
2018-12-08T09:25:46.257Z,284.00
2018-12-08T09:26:46.251Z,356.00
2018-12-08T09:27:46.185Z,496.00
2018-12-08T09:28:46.251Z,512.00
2018-12-08T09:29:46.206Z,492.00
2018-12-08T09:30:46.183Z,364.00
2018-12-08T09:31:46.235Z,400.00
2018-12-08T09:32:46.260Z,416.00
2018-12-08T09:33:46.211Z,388.00
2018-12-08T09:34:46.251Z,412.00
2018-12-08T09:35:46.193Z,484.00
2018-12-08T09:36:46.226Z,612.00
2018-12-08T09:37:46.196Z,568.00
2018-12-08T09:38:46.293Z,1096.00
2018-12-08T09:39:46.217Z,884.00
2018-12-08T09:40:46.239Z,744.00
2018-12-08T09:41:46.167Z,792.00
2018-12-08T09:42:46.168Z,728.00
2018-12-08T09:43:46.220Z,592.00
2018-12-08T09:44:46.160Z,568.00
2018-12-08T09:45:46.159Z,572.00
2018-12-08T09:46:46.160Z,548.00
2018-12-08T09:47:46.162Z,416.00
2018-12-08T09:48:46.157Z,524.00
2018-12-08T09:49:46.169Z,504.00
2018-12-08T09:50:46.152Z,396.00
2018-12-08T09:51:46.147Z,300.00
2018-12-08T09:52:46.139Z,304.00
2018-12-08T09:53:46.143Z,240.00
2018-12-08T09:54:47.471Z,288.00
2018-12-08T09:55:46.147Z,248.00
2018-12-08T09:56:46.145Z,292.00
2018-12-08T09:57:46.192Z,344.00
2018-12-08T09:58:46.151Z,416.00
2018-12-08T09:59:46.153Z,564.00
2018-12-08T10:00:46.135Z,596.00
2018-12-08T10:01:46.140Z,744.00
2018-12-08T10:02:46.147Z,872.00
2018-12-08T10:03:46.142Z,1020.00
2018-12-08T10:04:46.138Z,1240.00
2018-12-08T10:05:46.156Z,1272.00
2018-12-08T10:06:46.137Z,1216.00
2018-12-08T10:07:46.131Z,1040.00
2018-12-08T10:08:46.144Z,840.00
2018-12-08T10:09:46.132Z,908.00
2018-12-08T10:10:46.120Z,1100.00
2018-12-08T10:11:46.138Z,988.00
2018-12-08T10:12:46.132Z,720.00
2018-12-08T10:13:46.142Z,596.00
2018-12-08T10:14:46.117Z,624.00
2018-12-08T10:15:46.139Z,796.00
2018-12-08T10:16:46.126Z,896.00
2018-12-08T10:17:46.124Z,1256.00
2018-12-08T10:18:46.126Z,1144.00
2018-12-08T10:19:46.125Z,1516.00
2018-12-08T10:20:46.121Z,1124.00
2018-12-08T10:21:46.134Z,1064.00
2018-12-08T10:22:46.111Z,704.00
2018-12-08T10:23:46.121Z,592.00
2018-12-08T10:24:46.122Z,468.00
2018-12-08T10:25:46.116Z,388.00
2018-12-08T10:26:46.126Z,576.00
2018-12-08T10:27:46.113Z,764.00
2018-12-08T10:28:46.131Z,944.00
2018-12-08T10:29:46.105Z,772.00
2018-12-08T10:30:46.109Z,600.00
2018-12-08T10:31:46.119Z,644.00
2018-12-08T10:32:46.134Z,352.00
2018-12-08T10:33:46.111Z,344.00
2018-12-08T10:34:46.105Z,288.00
2018-12-08T10:35:46.110Z,400.00
2018-12-08T10:36:46.125Z,300.00
2018-12-08T10:37:46.104Z,340.00
2018-12-08T10:38:46.114Z,316.00
2018-12-08T10:39:46.091Z,428.00
2018-12-08T10:40:46.095Z,356.00
2018-12-08T10:41:46.106Z,452.00
2018-12-08T10:42:46.102Z,500.00
2018-12-08T10:43:46.106Z,456.00
2018-12-08T10:44:46.096Z,468.00
2018-12-08T10:45:46.119Z,368.00
2018-12-08T10:46:46.092Z,276.00
2018-12-08T10:47:46.136Z,296.00
2018-12-08T10:48:46.085Z,284.00
2018-12-08T10:49:46.098Z,252.00
2018-12-08T10:50:46.095Z,240.00
2018-12-08T10:51:46.093Z,412.00
2018-12-08T10:52:46.110Z,468.00
2018-12-08T10:53:46.077Z,368.00
2018-12-08T10:54:46.114Z,240.00
2018-12-08T10:55:46.082Z,204.00
2018-12-08T10:56:46.076Z,276.00
2018-12-08T10:57:46.096Z,364.00
2018-12-08T10:58:46.089Z,392.00
2018-12-08T10:59:46.081Z,584.00
2018-12-08T11:00:46.072Z,452.00
2018-12-08T11:01:46.071Z,620.00
2018-12-08T11:02:46.086Z,668.00
2018-12-08T11:03:46.089Z,652.00
2018-12-08T11:04:46.084Z,1036.00
2018-12-08T11:05:46.083Z,900.00
2018-12-08T11:06:46.073Z,1292.00
2018-12-08T11:07:46.087Z,1180.00
2018-12-08T11:08:46.066Z,1432.00
2018-12-08T11:09:46.074Z,1332.00
2018-12-08T11:10:46.078Z,1292.00
2018-12-08T11:11:46.068Z,1596.00
2018-12-08T11:12:46.072Z,1864.00
2018-12-08T11:13:46.067Z,1484.00
2018-12-08T11:14:46.069Z,1612.00
2018-12-08T11:15:46.060Z,1624.00
2018-12-08T11:16:46.076Z,1068.00
2018-12-08T11:17:46.072Z,1608.00
2018-12-08T11:18:46.061Z,1728.00
2018-12-08T11:19:46.060Z,1640.00
2018-12-08T11:20:46.058Z,1172.00
2018-12-08T11:21:46.046Z,1276.00
2018-12-08T11:22:46.055Z,1360.00
2018-12-08T11:23:46.051Z,980.00
2018-12-08T11:24:47.970Z,804.00
2018-12-08T11:25:46.064Z,836.00
2018-12-08T11:26:46.049Z,1032.00
2018-12-08T11:27:46.049Z,1612.00
2018-12-08T11:28:46.050Z,2776.00
2018-12-08T11:29:46.066Z,2372.00
2018-12-08T11:30:46.064Z,3280.00
2018-12-08T11:31:46.061Z,2928.00
2018-12-08T11:32:46.051Z,4128.00
2018-12-08T11:33:46.050Z,3384.00
2018-12-08T11:34:46.062Z,3024.00
2018-12-08T11:35:46.037Z,3276.00
2018-12-08T11:36:49.474Z,2172.00
2018-12-08T11:37:46.047Z,3364.00
2018-12-08T11:38:46.039Z,3648.00
2018-12-08T11:39:46.060Z,4168.00
2018-12-08T11:40:46.068Z,3788.00
2018-12-08T11:41:46.066Z,3220.00
2018-12-08T11:42:46.043Z,2964.00
2018-12-08T11:43:46.048Z,2528.00
2018-12-08T11:44:46.040Z,3016.00
2018-12-08T11:45:46.044Z,3428.00
2018-12-08T11:46:46.035Z,2476.00
2018-12-08T11:47:46.032Z,3140.00
2018-12-08T11:48:46.033Z,2492.00
2018-12-08T11:49:46.035Z,2560.00
2018-12-08T11:50:46.044Z,1760.00
2018-12-08T11:51:46.035Z,1916.00
2018-12-08T11:52:46.060Z,1976.00
2018-12-08T11:53:46.056Z,2368.00
2018-12-08T11:54:46.023Z,2936.00
2018-12-08T11:55:46.046Z,3224.00
2018-12-08T11:56:46.045Z,2980.00
2018-12-08T11:57:46.039Z,2804.00
2018-12-08T11:58:46.043Z,2612.00
2018-12-08T11:59:46.033Z,2788.00
2018-12-08T12:00:46.031Z,2028.00
2018-12-08T12:01:46.024Z,1652.00
2018-12-08T12:02:46.020Z,1564.00
2018-12-08T12:03:46.029Z,2216.00
2018-12-08T12:04:46.046Z,2684.00
2018-12-08T12:05:46.024Z,3440.00
2018-12-08T12:06:46.131Z,2988.00
2018-12-08T12:07:46.061Z,3712.00
2018-12-08T12:08:46.038Z,5920.00
2018-12-08T12:09:46.030Z,5516.00
2018-12-08T12:10:46.031Z,5252.00
2018-12-08T12:11:46.018Z,3108.00
2018-12-08T12:12:46.034Z,2652.00
2018-12-08T12:13:46.029Z,2340.00
2018-12-08T12:14:46.042Z,1924.00
2018-12-08T12:15:46.032Z,1680.00
2018-12-08T12:16:46.029Z,1900.00
2018-12-08T12:17:46.029Z,3020.00
2018-12-08T12:18:46.023Z,1812.00
2018-12-08T12:19:46.020Z,1808.00
2018-12-08T12:20:46.021Z,2588.00
2018-12-08T12:21:46.030Z,3624.00
2018-12-08T12:22:46.103Z,3892.00
2018-12-08T12:23:46.029Z,3596.00
2018-12-08T12:24:46.044Z,3584.00
2018-12-08T12:25:46.022Z,2904.00
2018-12-08T12:26:46.033Z,2560.00
2018-12-08T12:27:46.030Z,1976.00
2018-12-08T12:28:46.024Z,1764.00
2018-12-08T12:29:46.024Z,1804.00
2018-12-08T12:30:46.012Z,1472.00
2018-12-08T12:31:46.032Z,2016.00
2018-12-08T12:32:46.035Z,1896.00
2018-12-08T12:33:46.032Z,2404.00
2018-12-08T12:34:46.027Z,2576.00
2018-12-08T12:35:46.017Z,2608.00
2018-12-08T12:36:46.014Z,1980.00
2018-12-08T12:37:46.060Z,1940.00
2018-12-08T12:38:46.017Z,1932.00
2018-12-08T12:39:46.023Z,1732.00
2018-12-08T12:40:46.061Z,1516.00
2018-12-08T12:41:46.025Z,1788.00
2018-12-08T12:42:46.014Z,2748.00
2018-12-08T12:43:46.033Z,2960.00
2018-12-08T12:44:46.009Z,2768.00
2018-12-08T12:45:46.017Z,2248.00
2018-12-08T12:46:46.011Z,1532.00
2018-12-08T12:47:46.046Z,1492.00
2018-12-08T12:48:46.022Z,1996.00
2018-12-08T12:49:46.010Z,2632.00
2018-12-08T12:50:46.036Z,2104.00
2018-12-08T12:51:46.022Z,2068.00
2018-12-08T12:52:46.017Z,2720.00